sensor_id;sensor_type;location;lat;lon;timestamp;pressure;altitude;pressure_sealevel;temperature;humidity
53960;BME280;39866;48.638;-2.020;2023-02-26T17:36:55;102298.06;;;8.99;40.98
53960;BME280;39866;48.638;-2.020;2023-02-26T17:39:22;102300.78;;;9.24;41.25
53960;BME280;39866;48.638;-2.020;2023-02-26T17:41:47;102299.91;;;9.31;41.13
53960;BME280;39866;48.638;-2.020;2023-02-26T17:44:13;102301.66;;;9.33;41.38
53960;BME280;39866;48.638;-2.020;2023-02-26T17:46:39;102324.63;;;9.01;41.80
53960;BME280;39866;48.638;-2.020;2023-02-26T17:49:04;102315.88;;;9.31;41.56
53960;BME280;39866;48.638;-2.020;2023-02-26T17:51:30;102295.44;;;9.08;41.06
53960;BME280;39866;48.638;-2.020;2023-02-26T17:53:55;102321.13;;;9.12;41.09
53960;BME280;39866;48.638;-2.020;2023-02-26T17:56:24;102322.88;;;9.04;40.97
53960;BME280;39866;48.638;-2.020;2023-02-26T17:58:50;102314.84;;;8.93;40.99
53960;BME280;39866;48.638;-2.020;2023-02-26T18:01:16;102308.72;;;9.11;41.23
53960;BME280;39866;48.638;-2.020;2023-02-26T18:03:42;102315.84;;;9.32;40.96
53960;BME280;39866;48.638;-2.020;2023-02-26T18:06:09;102312.28;;;9.16;42.05
53960;BME280;39866;48.638;-2.020;2023-02-26T18:08:35;102314.91;;;9.00;42.61
53960;BME280;39866;48.638;-2.020;2023-02-26T18:11:02;102330.84;;;9.09;42.12
53960;BME280;39866;48.638;-2.020;2023-02-26T18:13:29;102303.31;;;8.85;42.43
53960;BME280;39866;48.638;-2.020;2023-02-26T18:15:55;102323.69;;;8.83;42.15
53960;BME280;39866;48.638;-2.020;2023-02-26T18:18:23;102336.09;;;8.87;42.43
53960;BME280;39866;48.638;-2.020;2023-02-26T18:20:50;102325.44;;;8.80;42.92
53960;BME280;39866;48.638;-2.020;2023-02-26T18:23:16;102324.53;;;8.70;43.08
53960;BME280;39866;48.638;-2.020;2023-02-26T18:25:43;102324.53;;;8.73;42.58
53960;BME280;39866;48.638;-2.020;2023-02-26T18:28:14;102334.25;;;8.66;43.48
53960;BME280;39866;48.638;-2.020;2023-02-26T18:30:40;102334.38;;;8.94;43.12
53960;BME280;39866;48.638;-2.020;2023-02-26T18:33:08;102356.38;;;8.73;43.31
53960;BME280;39866;48.638;-2.020;2023-02-26T18:35:34;102350.22;;;8.74;43.50
53960;BME280;39866;48.638;-2.020;2023-02-26T18:37:59;102346.75;;;8.97;43.30
53960;BME280;39866;48.638;-2.020;2023-02-26T18:40:26;102352.00;;;8.78;43.21
53960;BME280;39866;48.638;-2.020;2023-02-26T18:42:52;102347.56;;;8.77;43.50
53960;BME280;39866;48.638;-2.020;2023-02-26T18:45:18;102349.41;;;8.93;42.96
53960;BME280;39866;48.638;-2.020;2023-02-26T18:47:44;102353.75;;;8.70;43.26
53960;BME280;39866;48.638;-2.020;2023-02-26T18:50:13;102355.50;;;8.71;43.32
53960;BME280;39866;48.638;-2.020;2023-02-26T18:52:39;102349.25;;;8.60;43.71
53960;BME280;39866;48.638;-2.020;2023-02-26T18:55:05;102350.25;;;8.80;44.27
53960;BME280;39866;48.638;-2.020;2023-02-26T18:57:30;102360.81;;;8.68;44.43
53960;BME280;39866;48.638;-2.020;2023-02-26T18:59:57;102354.66;;;8.77;44.25
53960;BME280;39866;48.638;-2.020;2023-02-26T19:02:22;102367.00;;;8.68;44.44
53960;BME280;39866;48.638;-2.020;2023-02-26T19:04:48;102373.25;;;8.78;44.83
53960;BME280;39866;48.638;-2.020;2023-02-26T19:07:14;102367.91;;;8.77;44.49
53960;BME280;39866;48.638;-2.020;2023-02-26T19:09:39;102364.34;;;8.65;44.28
53960;BME280;39866;48.638;-2.020;2023-02-26T19:12:05;102373.13;;;8.57;44.61
53960;BME280;39866;48.638;-2.020;2023-02-26T19:14:31;102370.59;;;8.81;43.51
53960;BME280;39866;48.638;-2.020;2023-02-26T19:16:57;102371.47;;;8.74;43.93
53960;BME280;39866;48.638;-2.020;2023-02-26T19:19:23;102382.09;;;8.80;44.38
53960;BME280;39866;48.638;-2.020;2023-02-26T19:21:48;102386.59;;;8.93;44.37
53960;BME280;39866;48.638;-2.020;2023-02-26T19:24:14;102380.28;;;8.73;44.24
53960;BME280;39866;48.638;-2.020;2023-02-26T19:26:40;102380.31;;;8.75;44.59
53960;BME280;39866;48.638;-2.020;2023-02-26T19:29:08;102368.75;;;8.63;44.75
53960;BME280;39866;48.638;-2.020;2023-02-26T19:31:34;102374.16;;;8.79;44.62
53960;BME280;39866;48.638;-2.020;2023-02-26T19:34:01;102370.53;;;8.67;44.63
53960;BME280;39866;48.638;-2.020;2023-02-26T19:36:27;102359.03;;;8.68;44.54
53960;BME280;39866;48.638;-2.020;2023-02-26T19:38:59;102369.59;;;8.55;43.84
53960;BME280;39866;48.638;-2.020;2023-02-26T19:41:24;102330.50;;;8.34;44.02
53960;BME280;39866;48.638;-2.020;2023-02-26T19:43:50;102358.81;;;8.36;43.95
53960;BME280;39866;48.638;-2.020;2023-02-26T19:46:15;102358.09;;;8.56;44.06
53960;BME280;39866;48.638;-2.020;2023-02-26T19:48:41;102369.72;;;8.79;44.36
53960;BME280;39866;48.638;-2.020;2023-02-26T19:51:06;102380.44;;;9.10;44.24
53960;BME280;39866;48.638;-2.020;2023-02-26T19:53:32;102370.53;;;8.69;44.11
53960;BME280;39866;48.638;-2.020;2023-02-26T19:55:59;102357.28;;;8.72;44.24
53960;BME280;39866;48.638;-2.020;2023-02-26T19:58:25;102373.97;;;8.48;44.25
53960;BME280;39866;48.638;-2.020;2023-02-26T20:00:55;102377.66;;;8.70;43.83
53960;BME280;39866;48.638;-2.020;2023-02-26T20:03:21;102383.06;;;8.91;44.05
53960;BME280;39866;48.638;-2.020;2023-02-26T20:05:46;102377.78;;;9.04;44.36
53960;BME280;39866;48.638;-2.020;2023-02-26T20:08:12;102394.50;;;8.81;44.30
53960;BME280;39866;48.638;-2.020;2023-02-26T20:10:37;102394.38;;;8.60;45.35
53960;BME280;39866;48.638;-2.020;2023-02-26T20:13:02;102390.78;;;8.49;45.76
53960;BME280;39866;48.638;-2.020;2023-02-26T20:15:28;102406.94;;;8.82;45.10
53960;BME280;39866;48.638;-2.020;2023-02-26T20:17:54;102391.81;;;8.77;45.64
53960;BME280;39866;48.638;-2.020;2023-02-26T20:20:20;102404.09;;;8.56;45.62
53960;BME280;39866;48.638;-2.020;2023-02-26T20:22:47;102395.25;;;8.54;45.52
53960;BME280;39866;48.638;-2.020;2023-02-26T20:25:12;102382.91;;;8.64;45.72
53960;BME280;39866;48.638;-2.020;2023-02-26T20:27:39;102389.03;;;8.49;45.92
53960;BME280;39866;48.638;-2.020;2023-02-26T20:30:05;102396.28;;;8.85;45.06
53960;BME280;39866;48.638;-2.020;2023-02-26T20:32:31;102391.63;;;8.37;45.74
53960;BME280;39866;48.638;-2.020;2023-02-26T20:34:57;102405.84;;;8.50;45.40
53960;BME280;39866;48.638;-2.020;2023-02-26T20:37:22;102407.66;;;8.58;45.43
53960;BME280;39866;48.638;-2.020;2023-02-26T20:39:47;102416.50;;;8.60;45.30
53960;BME280;39866;48.638;-2.020;2023-02-26T20:42:13;102419.34;;;8.86;45.13
53960;BME280;39866;48.638;-2.020;2023-02-26T20:44:38;102410.31;;;8.60;45.80
53960;BME280;39866;48.638;-2.020;2023-02-26T20:47:04;102417.38;;;8.55;46.49
53960;BME280;39866;48.638;-2.020;2023-02-26T20:49:30;102405.97;;;8.70;45.72
53960;BME280;39866;48.638;-2.020;2023-02-26T20:51:55;102397.75;;;8.34;46.54
53960;BME280;39866;48.638;-2.020;2023-02-26T20:54:21;102403.88;;;8.27;46.97
53960;BME280;39866;48.638;-2.020;2023-02-26T20:56:48;102404.97;;;8.52;46.23
53960;BME280;39866;48.638;-2.020;2023-02-26T20:59:17;102422.50;;;8.33;46.63
53960;BME280;39866;48.638;-2.020;2023-02-26T21:01:47;102427.88;;;8.39;46.91
53960;BME280;39866;48.638;-2.020;2023-02-26T21:04:16;102420.09;;;8.67;46.77
53960;BME280;39866;48.638;-2.020;2023-02-26T21:06:43;102421.06;;;8.81;46.03
53960;BME280;39866;48.638;-2.020;2023-02-26T21:09:08;102425.63;;;9.08;45.67
53960;BME280;39866;48.638;-2.020;2023-02-26T21:11:37;102436.19;;;8.91;46.16
53960;BME280;39866;48.638;-2.020;2023-02-26T21:14:04;102427.44;;;9.17;45.35
53960;BME280;39866;48.638;-2.020;2023-02-26T21:16:30;102434.47;;;9.09;45.57
53960;BME280;39866;48.638;-2.020;2023-02-26T21:18:56;102443.28;;;8.97;45.70
53960;BME280;39866;48.638;-2.020;2023-02-26T21:21:24;102449.47;;;8.98;45.43
53960;BME280;39866;48.638;-2.020;2023-02-26T21:23:50;102443.16;;;8.77;45.79
53960;BME280;39866;48.638;-2.020;2023-02-26T21:26:17;102448.75;;;9.32;44.84
53960;BME280;39866;48.638;-2.020;2023-02-26T21:28:43;102452.31;;;9.37;45.14
53960;BME280;39866;48.638;-2.020;2023-02-26T21:31:17;102451.22;;;8.86;45.45
53960;BME280;39866;48.638;-2.020;2023-02-26T21:33:43;102453.06;;;9.06;45.06
53960;BME280;39866;48.638;-2.020;2023-02-26T21:36:09;102468.19;;;9.16;45.38
53960;BME280;39866;48.638;-2.020;2023-02-26T21:38:36;102462.91;;;9.24;45.27
53960;BME280;39866;48.638;-2.020;2023-02-26T21:41:03;102474.41;;;9.20;45.39
53960;BME280;39866;48.638;-2.020;2023-02-26T21:43:29;102470.72;;;8.98;45.38
53960;BME280;39866;48.638;-2.020;2023-02-26T21:45:54;102474.22;;;8.87;45.25
53960;BME280;39866;48.638;-2.020;2023-02-26T21:48:19;102473.50;;;9.14;44.87
53960;BME280;39866;48.638;-2.020;2023-02-26T21:50:45;102482.19;;;8.89;44.73
53960;BME280;39866;48.638;-2.020;2023-02-26T21:53:12;102481.47;;;9.11;44.94
53960;BME280;39866;48.638;-2.020;2023-02-26T21:55:37;102476.09;;;9.02;44.60
53960;BME280;39866;48.638;-2.020;2023-02-26T21:58:03;102480.47;;;8.97;45.26
53960;BME280;39866;48.638;-2.020;2023-02-26T22:00:28;102480.63;;;9.25;44.59
53960;BME280;39866;48.638;-2.020;2023-02-26T22:02:53;102484.09;;;9.10;44.82
53960;BME280;39866;48.638;-2.020;2023-02-26T22:05:19;102491.19;;;9.11;44.88
53960;BME280;39866;48.638;-2.020;2023-02-26T22:07:44;102496.44;;;9.00;44.68
53960;BME280;39866;48.638;-2.020;2023-02-26T22:10:11;102497.19;;;8.75;45.29
53960;BME280;39866;48.638;-2.020;2023-02-26T22:12:36;102495.63;;;9.12;44.99
53960;BME280;39866;48.638;-2.020;2023-02-26T22:15:02;102495.66;;;9.15;44.52
53960;BME280;39866;48.638;-2.020;2023-02-26T22:17:27;102489.34;;;9.01;44.62
53960;BME280;39866;48.638;-2.020;2023-02-26T22:19:55;102484.00;;;8.93;44.75
53960;BME280;39866;48.638;-2.020;2023-02-26T22:22:20;102495.59;;;9.03;44.84
53960;BME280;39866;48.638;-2.020;2023-02-26T22:24:46;102493.78;;;9.02;44.77
53960;BME280;39866;48.638;-2.020;2023-02-26T22:27:11;102495.50;;;8.86;45.18
53960;BME280;39866;48.638;-2.020;2023-02-26T22:29:37;102483.91;;;8.81;44.97
53960;BME280;39866;48.638;-2.020;2023-02-26T22:32:03;102488.34;;;8.80;45.21
53960;BME280;39866;48.638;-2.020;2023-02-26T22:34:29;102492.03;;;8.99;44.96
53960;BME280;39866;48.638;-2.020;2023-02-26T22:36:57;102491.16;;;9.09;45.01
53960;BME280;39866;48.638;-2.020;2023-02-26T22:39:23;102501.69;;;8.89;45.08
53960;BME280;39866;48.638;-2.020;2023-02-26T22:41:48;102498.97;;;8.80;45.06
53960;BME280;39866;48.638;-2.020;2023-02-26T22:44:13;102501.66;;;8.83;45.18
53960;BME280;39866;48.638;-2.020;2023-02-26T22:46:39;102507.69;;;8.58;45.88
53960;BME280;39866;48.638;-2.020;2023-02-26T22:49:04;102502.00;;;8.16;46.61
53960;BME280;39866;48.638;-2.020;2023-02-26T22:51:30;102504.88;;;8.44;46.25
53960;BME280;39866;48.638;-2.020;2023-02-26T22:53:58;102504.94;;;8.47;45.89
53960;BME280;39866;48.638;-2.020;2023-02-26T22:56:23;102504.75;;;8.29;46.45
53960;BME280;39866;48.638;-2.020;2023-02-26T22:58:49;102489.72;;;8.31;46.33
53960;BME280;39866;48.638;-2.020;2023-02-26T23:01:15;102502.19;;;8.39;46.20
53960;BME280;39866;48.638;-2.020;2023-02-26T23:03:40;102500.47;;;8.41;45.94
53960;BME280;39866;48.638;-2.020;2023-02-26T23:06:06;102507.53;;;8.42;46.29
53960;BME280;39866;48.638;-2.020;2023-02-26T23:08:32;102499.44;;;8.29;46.20
53960;BME280;39866;48.638;-2.020;2023-02-26T23:10:58;102499.69;;;8.53;46.26
53960;BME280;39866;48.638;-2.020;2023-02-26T23:13:24;102505.81;;;8.46;45.79
53960;BME280;39866;48.638;-2.020;2023-02-26T23:15:50;102513.03;;;8.62;45.71
53960;BME280;39866;48.638;-2.020;2023-02-26T23:18:16;102503.09;;;8.38;45.86
53960;BME280;39866;48.638;-2.020;2023-02-26T23:20:42;102504.75;;;8.30;46.49
53960;BME280;39866;48.638;-2.020;2023-02-26T23:23:07;102497.03;;;8.53;45.70
53960;BME280;39866;48.638;-2.020;2023-02-26T23:25:32;102505.66;;;8.35;46.10
53960;BME280;39866;48.638;-2.020;2023-02-26T23:27:58;102499.66;;;8.50;45.56
53960;BME280;39866;48.638;-2.020;2023-02-26T23:30:23;102512.81;;;8.39;45.75
53960;BME280;39866;48.638;-2.020;2023-02-26T23:32:49;102492.47;;;8.40;46.02
53960;BME280;39866;48.638;-2.020;2023-02-26T23:35:15;102504.88;;;8.44;45.94
53960;BME280;39866;48.638;-2.020;2023-02-26T23:37:40;102488.94;;;8.39;45.76
53960;BME280;39866;48.638;-2.020;2023-02-26T23:40:06;102502.84;;;8.12;46.04
53960;BME280;39866;48.638;-2.020;2023-02-26T23:42:32;102503.97;;;8.40;45.69
53960;BME280;39866;48.638;-2.020;2023-02-26T23:44:57;102513.63;;;8.34;45.64
53960;BME280;39866;48.638;-2.020;2023-02-26T23:47:23;102504.94;;;8.47;45.30
53960;BME280;39866;48.638;-2.020;2023-02-26T23:49:48;102505.56;;;8.23;45.46
53960;BME280;39866;48.638;-2.020;2023-02-26T23:52:14;102500.34;;;8.32;45.10
53960;BME280;39866;48.638;-2.020;2023-02-26T23:54:39;102497.56;;;8.17;45.34
53960;BME280;39866;48.638;-2.020;2023-02-26T23:57:05;102501.19;;;8.27;45.12
53960;BME280;39866;48.638;-2.020;2023-02-26T23:59:30;102496.81;;;8.36;44.75
